sensor_id;sensor_type;location;lat;lon;timestamp;temperature;humidity
26641;DHT22;14269;47.358;0.724;2022-09-09T00:01:28;26.0;46.0
26641;DHT22;14269;47.358;0.724;2022-09-09T00:04:13;25.0;47.0
26641;DHT22;14269;47.358;0.724;2022-09-09T00:06:58;26.0;45.0
26641;DHT22;14269;47.358;0.724;2022-09-09T00:09:39;25.0;48.0
26641;DHT22;14269;47.358;0.724;2022-09-09T00:12:17;25.0;47.0
26641;DHT22;14269;47.358;0.724;2022-09-09T00:14:58;25.0;48.0
26641;DHT22;14269;47.358;0.724;2022-09-09T00:17:42;25.0;47.0
26641;DHT22;14269;47.358;0.724;2022-09-09T00:20:23;25.0;48.0
26641;DHT22;14269;47.358;0.724;2022-09-09T00:23:04;25.0;47.0
26641;DHT22;14269;47.358;0.724;2022-09-09T00:25:47;25.0;47.0
26641;DHT22;14269;47.358;0.724;2022-09-09T00:28:26;26.0;47.0
26641;DHT22;14269;47.358;0.724;2022-09-09T00:31:13;26.0;47.0
26641;DHT22;14269;47.358;0.724;2022-09-09T00:33:48;26.0;46.0
26641;DHT22;14269;47.358;0.724;2022-09-09T00:36:31;26.0;46.0
26641;DHT22;14269;47.358;0.724;2022-09-09T00:39:18;26.0;46.0
26641;DHT22;14269;47.358;0.724;2022-09-09T00:42:03;26.0;46.0
26641;DHT22;14269;47.358;0.724;2022-09-09T00:44:58;27.0;45.0
26641;DHT22;14269;47.358;0.724;2022-09-09T00:47:43;26.0;45.0
26641;DHT22;14269;47.358;0.724;2022-09-09T00:50:29;26.0;45.0
26641;DHT22;14269;47.358;0.724;2022-09-09T00:53:19;26.0;46.0
26641;DHT22;14269;47.358;0.724;2022-09-09T00:56:09;26.0;46.0
26641;DHT22;14269;47.358;0.724;2022-09-09T00:58:51;26.0;47.0
26641;DHT22;14269;47.358;0.724;2022-09-09T01:01:25;26.0;47.0
26641;DHT22;14269;47.358;0.724;2022-09-09T01:03:59;26.0;47.0
26641;DHT22;14269;47.358;0.724;2022-09-09T01:06:39;26.0;47.0
26641;DHT22;14269;47.358;0.724;2022-09-09T01:09:16;26.0;46.0
26641;DHT22;14269;47.358;0.724;2022-09-09T01:11:59;25.0;47.0
26641;DHT22;14269;47.358;0.724;2022-09-09T01:14:41;26.0;47.0
26641;DHT22;14269;47.358;0.724;2022-09-09T01:17:17;26.0;46.0
26641;DHT22;14269;47.358;0.724;2022-09-09T01:20:05;26.0;46.0
26641;DHT22;14269;47.358;0.724;2022-09-09T01:22:48;26.0;46.0
26641;DHT22;14269;47.358;0.724;2022-09-09T01:25:56;26.0;46.0
26641;DHT22;14269;47.358;0.724;2022-09-09T01:28:35;26.0;45.0
26641;DHT22;14269;47.358;0.724;2022-09-09T01:31:19;26.0;46.0
26641;DHT22;14269;47.358;0.724;2022-09-09T01:33:56;26.0;45.0
26641;DHT22;14269;47.358;0.724;2022-09-09T01:36:32;27.0;44.0
26641;DHT22;14269;47.358;0.724;2022-09-09T01:39:10;26.0;45.0
26641;DHT22;14269;47.358;0.724;2022-09-09T01:41:52;26.0;45.0
26641;DHT22;14269;47.358;0.724;2022-09-09T01:44:24;26.0;46.0
26641;DHT22;14269;47.358;0.724;2022-09-09T01:47:05;25.0;47.0
26641;DHT22;14269;47.358;0.724;2022-09-09T01:49:36;25.0;47.0
26641;DHT22;14269;47.358;0.724;2022-09-09T01:52:08;26.0;47.0
26641;DHT22;14269;47.358;0.724;2022-09-09T01:54:40;25.0;48.0
26641;DHT22;14269;47.358;0.724;2022-09-09T01:57:15;25.0;48.0
26641;DHT22;14269;47.358;0.724;2022-09-09T02:00:03;25.0;48.0
26641;DHT22;14269;47.358;0.724;2022-09-09T02:02:52;25.0;47.0
26641;DHT22;14269;47.358;0.724;2022-09-09T02:05:32;26.0;47.0
26641;DHT22;14269;47.358;0.724;2022-09-09T02:08:11;26.0;45.0
26641;DHT22;14269;47.358;0.724;2022-09-09T02:10:55;26.0;45.0
26641;DHT22;14269;47.358;0.724;2022-09-09T02:13:35;26.0;46.0
26641;DHT22;14269;47.358;0.724;2022-09-09T02:16:19;25.0;46.0
26641;DHT22;14269;47.358;0.724;2022-09-09T02:19:00;26.0;44.0
26641;DHT22;14269;47.358;0.724;2022-09-09T02:21:38;26.0;46.0
26641;DHT22;14269;47.358;0.724;2022-09-09T02:24:19;26.0;46.0
26641;DHT22;14269;47.358;0.724;2022-09-09T02:26:53;26.0;46.0
26641;DHT22;14269;47.358;0.724;2022-09-09T02:29:34;25.0;47.0
26641;DHT22;14269;47.358;0.724;2022-09-09T02:32:17;25.0;47.0
26641;DHT22;14269;47.358;0.724;2022-09-09T02:35:00;26.0;46.0
26641;DHT22;14269;47.358;0.724;2022-09-09T02:37:39;26.0;45.0
26641;DHT22;14269;47.358;0.724;2022-09-09T02:40:21;26.0;46.0
26641;DHT22;14269;47.358;0.724;2022-09-09T02:43:03;25.0;47.0
26641;DHT22;14269;47.358;0.724;2022-09-09T02:45:51;26.0;46.0
26641;DHT22;14269;47.358;0.724;2022-09-09T02:48:30;25.0;48.0
26641;DHT22;14269;47.358;0.724;2022-09-09T02:51:10;25.0;48.0
26641;DHT22;14269;47.358;0.724;2022-09-09T02:53:57;25.0;48.0
26641;DHT22;14269;47.358;0.724;2022-09-09T02:56:34;25.0;48.0
26641;DHT22;14269;47.358;0.724;2022-09-09T02:59:12;26.0;46.0
26641;DHT22;14269;47.358;0.724;2022-09-09T03:01:44;25.0;47.0
26641;DHT22;14269;47.358;0.724;2022-09-09T03:04:15;25.0;47.0
26641;DHT22;14269;47.358;0.724;2022-09-09T03:06:47;25.0;47.0
26641;DHT22;14269;47.358;0.724;2022-09-09T03:09:18;25.0;48.0
26641;DHT22;14269;47.358;0.724;2022-09-09T03:11:50;25.0;47.0
26641;DHT22;14269;47.358;0.724;2022-09-09T03:14:24;25.0;49.0
26641;DHT22;14269;47.358;0.724;2022-09-09T03:17:04;25.0;48.0
26641;DHT22;14269;47.358;0.724;2022-09-09T03:19:36;25.0;47.0
26641;DHT22;14269;47.358;0.724;2022-09-09T03:22:17;25.0;48.0
26641;DHT22;14269;47.358;0.724;2022-09-09T03:24:48;25.0;48.0
26641;DHT22;14269;47.358;0.724;2022-09-09T03:27:20;25.0;47.0
26641;DHT22;14269;47.358;0.724;2022-09-09T03:29:52;25.0;47.0
26641;DHT22;14269;47.358;0.724;2022-09-09T03:32:25;25.0;47.0
26641;DHT22;14269;47.358;0.724;2022-09-09T03:35:06;25.0;48.0
26641;DHT22;14269;47.358;0.724;2022-09-09T03:37:38;25.0;48.0
26641;DHT22;14269;47.358;0.724;2022-09-09T03:40:20;25.0;47.0
26641;DHT22;14269;47.358;0.724;2022-09-09T03:43:00;25.0;47.0
26641;DHT22;14269;47.358;0.724;2022-09-09T03:45:32;25.0;47.0
26641;DHT22;14269;47.358;0.724;2022-09-09T03:48:04;25.0;47.0
26641;DHT22;14269;47.358;0.724;2022-09-09T03:50:35;24.0;50.0
26641;DHT22;14269;47.358;0.724;2022-09-09T03:53:07;25.0;48.0
26641;DHT22;14269;47.358;0.724;2022-09-09T03:55:39;24.0;49.0
26641;DHT22;14269;47.358;0.724;2022-09-09T03:58:21;24.0;49.0
26641;DHT22;14269;47.358;0.724;2022-09-09T04:01:04;25.0;48.0
26641;DHT22;14269;47.358;0.724;2022-09-09T04:03:44;25.0;46.0
26641;DHT22;14269;47.358;0.724;2022-09-09T04:06:21;25.0;47.0
26641;DHT22;14269;47.358;0.724;2022-09-09T04:08:57;25.0;47.0
26641;DHT22;14269;47.358;0.724;2022-09-09T04:11:29;25.0;47.0
26641;DHT22;14269;47.358;0.724;2022-09-09T04:14:00;24.0;49.0
26641;DHT22;14269;47.358;0.724;2022-09-09T04:16:32;25.0;47.0
26641;DHT22;14269;47.358;0.724;2022-09-09T04:19:04;25.0;47.0
26641;DHT22;14269;47.358;0.724;2022-09-09T04:21:45;24.0;48.0
26641;DHT22;14269;47.358;0.724;2022-09-09T04:24:17;25.0;47.0
26641;DHT22;14269;47.358;0.724;2022-09-09T04:26:50;25.0;48.0
26641;DHT22;14269;47.358;0.724;2022-09-09T04:29:20;25.0;47.0
26641;DHT22;14269;47.358;0.724;2022-09-09T04:31:53;24.0;48.0
26641;DHT22;14269;47.358;0.724;2022-09-09T04:34:25;24.0;49.0
26641;DHT22;14269;47.358;0.724;2022-09-09T04:37:06;25.0;48.0
26641;DHT22;14269;47.358;0.724;2022-09-09T04:39:37;24.0;48.0
26641;DHT22;14269;47.358;0.724;2022-09-09T04:42:09;25.0;47.0
26641;DHT22;14269;47.358;0.724;2022-09-09T04:44:40;25.0;48.0
26641;DHT22;14269;47.358;0.724;2022-09-09T04:47:14;24.0;49.0
26641;DHT22;14269;47.358;0.724;2022-09-09T04:49:54;25.0;47.0
26641;DHT22;14269;47.358;0.724;2022-09-09T04:52:26;26.0;46.0
26641;DHT22;14269;47.358;0.724;2022-09-09T04:54:58;25.0;47.0
26641;DHT22;14269;47.358;0.724;2022-09-09T04:57:31;25.0;46.0
26641;DHT22;14269;47.358;0.724;2022-09-09T05:00:12;25.0;47.0
26641;DHT22;14269;47.358;0.724;2022-09-09T05:02:52;25.0;48.0
26641;DHT22;14269;47.358;0.724;2022-09-09T05:05:25;25.0;48.0
26641;DHT22;14269;47.358;0.724;2022-09-09T05:08:07;25.0;47.0
26641;DHT22;14269;47.358;0.724;2022-09-09T05:10:48;25.0;48.0
26641;DHT22;14269;47.358;0.724;2022-09-09T05:13:20;25.0;47.0
26641;DHT22;14269;47.358;0.724;2022-09-09T05:16:01;25.0;47.0
26641;DHT22;14269;47.358;0.724;2022-09-09T05:18:32;25.0;47.0
26641;DHT22;14269;47.358;0.724;2022-09-09T05:21:06;25.0;46.0
26641;DHT22;14269;47.358;0.724;2022-09-09T05:23:46;25.0;48.0
26641;DHT22;14269;47.358;0.724;2022-09-09T05:26:20;24.0;48.0
26641;DHT22;14269;47.358;0.724;2022-09-09T05:29:01;25.0;48.0
26641;DHT22;14269;47.358;0.724;2022-09-09T05:31:41;25.0;47.0
26641;DHT22;14269;47.358;0.724;2022-09-09T05:34:13;25.0;46.0
26641;DHT22;14269;47.358;0.724;2022-09-09T05:36:45;25.0;46.0
26641;DHT22;14269;47.358;0.724;2022-09-09T05:39:16;25.0;46.0
26641;DHT22;14269;47.358;0.724;2022-09-09T05:41:49;25.0;48.0
26641;DHT22;14269;47.358;0.724;2022-09-09T05:44:19;25.0;47.0
26641;DHT22;14269;47.358;0.724;2022-09-09T05:46:51;25.0;47.0
26641;DHT22;14269;47.358;0.724;2022-09-09T05:49:23;25.0;47.0
26641;DHT22;14269;47.358;0.724;2022-09-09T05:51:54;24.0;48.0
26641;DHT22;14269;47.358;0.724;2022-09-09T05:54:26;25.0;47.0
26641;DHT22;14269;47.358;0.724;2022-09-09T05:56:58;25.0;47.0
26641;DHT22;14269;47.358;0.724;2022-09-09T05:59:30;25.0;46.0
26641;DHT22;14269;47.358;0.724;2022-09-09T06:02:12;25.0;47.0
26641;DHT22;14269;47.358;0.724;2022-09-09T06:04:53;24.0;48.0
26641;DHT22;14269;47.358;0.724;2022-09-09T06:07:24;24.0;48.0
26641;DHT22;14269;47.358;0.724;2022-09-09T06:09:56;25.0;47.0
26641;DHT22;14269;47.358;0.724;2022-09-09T06:12:27;25.0;47.0
26641;DHT22;14269;47.358;0.724;2022-09-09T06:14:59;25.0;47.0
26641;DHT22;14269;47.358;0.724;2022-09-09T06:17:31;24.0;49.0
26641;DHT22;14269;47.358;0.724;2022-09-09T06:20:03;25.0;47.0
26641;DHT22;14269;47.358;0.724;2022-09-09T06:22:34;25.0;48.0
26641;DHT22;14269;47.358;0.724;2022-09-09T06:25:08;25.0;47.0
26641;DHT22;14269;47.358;0.724;2022-09-09T06:27:49;25.0;46.0
26641;DHT22;14269;47.358;0.724;2022-09-09T06:30:30;25.0;47.0
26641;DHT22;14269;47.358;0.724;2022-09-09T06:33:01;25.0;47.0
26641;DHT22;14269;47.358;0.724;2022-09-09T06:35:33;26.0;46.0
26641;DHT22;14269;47.358;0.724;2022-09-09T06:38:05;25.0;47.0
26641;DHT22;14269;47.358;0.724;2022-09-09T06:40:51;25.0;47.0
26641;DHT22;14269;47.358;0.724;2022-09-09T06:43:28;26.0;46.0
26641;DHT22;14269;47.358;0.724;2022-09-09T06:46:02;25.0;46.0
26641;DHT22;14269;47.358;0.724;2022-09-09T06:48:42;25.0;48.0
26641;DHT22;14269;47.358;0.724;2022-09-09T06:51:15;25.0;46.0
26641;DHT22;14269;47.358;0.724;2022-09-09T06:53:56;25.0;47.0
26641;DHT22;14269;47.358;0.724;2022-09-09T06:56:38;25.0;46.0
26641;DHT22;14269;47.358;0.724;2022-09-09T06:59:18;25.0;46.0
26641;DHT22;14269;47.358;0.724;2022-09-09T07:01:51;26.0;45.0
26641;DHT22;14269;47.358;0.724;2022-09-09T07:04:32;26.0;45.0
26641;DHT22;14269;47.358;0.724;2022-09-09T07:07:04;26.0;44.0
26641;DHT22;14269;47.358;0.724;2022-09-09T07:09:35;26.0;44.0
26641;DHT22;14269;47.358;0.724;2022-09-09T07:12:07;26.0;44.0
26641;DHT22;14269;47.358;0.724;2022-09-09T07:14:38;26.0;44.0
26641;DHT22;14269;47.358;0.724;2022-09-09T07:17:10;26.0;44.0
26641;DHT22;14269;47.358;0.724;2022-09-09T07:19:42;26.0;45.0
26641;DHT22;14269;47.358;0.724;2022-09-09T07:22:23;26.0;45.0
26641;DHT22;14269;47.358;0.724;2022-09-09T07:25:06;26.0;44.0
26641;DHT22;14269;47.358;0.724;2022-09-09T07:27:47;26.0;45.0
26641;DHT22;14269;47.358;0.724;2022-09-09T07:30:19;27.0;43.0
26641;DHT22;14269;47.358;0.724;2022-09-09T07:32:51;28.0;42.0
26641;DHT22;14269;47.358;0.724;2022-09-09T07:35:21;28.0;42.0
26641;DHT22;14269;47.358;0.724;2022-09-09T07:37:53;28.0;42.0
26641;DHT22;14269;47.358;0.724;2022-09-09T07:40:25;27.0;42.0
26641;DHT22;14269;47.358;0.724;2022-09-09T07:42:56;27.0;43.0
26641;DHT22;14269;47.358;0.724;2022-09-09T07:45:28;27.0;43.0
26641;DHT22;14269;47.358;0.724;2022-09-09T07:48:00;26.0;44.0
26641;DHT22;14269;47.358;0.724;2022-09-09T07:50:31;26.0;43.0
26641;DHT22;14269;47.358;0.724;2022-09-09T07:53:05;26.0;44.0
26641;DHT22;14269;47.358;0.724;2022-09-09T07:55:45;27.0;42.0
26641;DHT22;14269;47.358;0.724;2022-09-09T07:58:16;27.0;43.0
26641;DHT22;14269;47.358;0.724;2022-09-09T08:00:49;27.0;42.0
26641;DHT22;14269;47.358;0.724;2022-09-09T08:03:30;27.0;42.0
26641;DHT22;14269;47.358;0.724;2022-09-09T08:06:03;27.0;43.0
26641;DHT22;14269;47.358;0.724;2022-09-09T08:08:43;26.0;43.0
26641;DHT22;14269;47.358;0.724;2022-09-09T08:11:15;27.0;42.0
26641;DHT22;14269;47.358;0.724;2022-09-09T08:13:48;27.0;42.0
26641;DHT22;14269;47.358;0.724;2022-09-09T08:16:31;26.0;43.0
26641;DHT22;14269;47.358;0.724;2022-09-09T08:19:10;26.0;43.0
26641;DHT22;14269;47.358;0.724;2022-09-09T08:21:43;27.0;43.0
26641;DHT22;14269;47.358;0.724;2022-09-09T08:24:24;26.0;44.0
26641;DHT22;14269;47.358;0.724;2022-09-09T08:26:56;27.0;42.0
26641;DHT22;14269;47.358;0.724;2022-09-09T08:29:37;28.0;41.0
26641;DHT22;14269;47.358;0.724;2022-09-09T08:32:08;28.0;40.0
26641;DHT22;14269;47.358;0.724;2022-09-09T08:34:41;29.0;39.0
26641;DHT22;14269;47.358;0.724;2022-09-09T08:37:22;28.0;39.0
26641;DHT22;14269;47.358;0.724;2022-09-09T08:39:54;28.0;40.0
26641;DHT22;14269;47.358;0.724;2022-09-09T08:42:35;29.0;39.0
26641;DHT22;14269;47.358;0.724;2022-09-09T08:45:24;29.0;37.0
26641;DHT22;14269;47.358;0.724;2022-09-09T08:48:11;29.0;37.0
26641;DHT22;14269;47.358;0.724;2022-09-09T08:50:52;30.0;37.0
26641;DHT22;14269;47.358;0.724;2022-09-09T08:53:26;30.0;36.0
26641;DHT22;14269;47.358;0.724;2022-09-09T08:56:09;29.0;37.0
26641;DHT22;14269;47.358;0.724;2022-09-09T08:58:49;29.0;37.0
26641;DHT22;14269;47.358;0.724;2022-09-09T09:01:39;29.0;38.0
26641;DHT22;14269;47.358;0.724;2022-09-09T09:04:30;29.0;37.0
26641;DHT22;14269;47.358;0.724;2022-09-09T09:07:25;30.0;36.0
26641;DHT22;14269;47.358;0.724;2022-09-09T09:10:12;30.0;35.0
26641;DHT22;14269;47.358;0.724;2022-09-09T09:12:47;29.0;35.0
26641;DHT22;14269;47.358;0.724;2022-09-09T09:15:36;30.0;35.0
26641;DHT22;14269;47.358;0.724;2022-09-09T09:18:12;30.0;34.0
26641;DHT22;14269;47.358;0.724;2022-09-09T09:20:56;29.0;35.0
26641;DHT22;14269;47.358;0.724;2022-09-09T09:23:39;29.0;35.0
26641;DHT22;14269;47.358;0.724;2022-09-09T09:26:14;28.0;36.0
26641;DHT22;14269;47.358;0.724;2022-09-09T09:28:45;28.0;37.0
26641;DHT22;14269;47.358;0.724;2022-09-09T09:31:18;29.0;36.0
26641;DHT22;14269;47.358;0.724;2022-09-09T09:33:59;29.0;36.0
26641;DHT22;14269;47.358;0.724;2022-09-09T09:36:37;30.0;36.0
26641;DHT22;14269;47.358;0.724;2022-09-09T09:39:23;29.0;36.0
26641;DHT22;14269;47.358;0.724;2022-09-09T09:41:54;29.0;36.0
26641;DHT22;14269;47.358;0.724;2022-09-09T09:44:27;29.0;36.0
26641;DHT22;14269;47.358;0.724;2022-09-09T09:47:10;29.0;36.0
26641;DHT22;14269;47.358;0.724;2022-09-09T09:49:53;30.0;34.0
26641;DHT22;14269;47.358;0.724;2022-09-09T09:52:32;31.0;33.0
26641;DHT22;14269;47.358;0.724;2022-09-09T09:55:14;30.0;33.0
26641;DHT22;14269;47.358;0.724;2022-09-09T09:58:00;29.0;35.0
26641;DHT22;14269;47.358;0.724;2022-09-09T10:00:48;29.0;36.0
26641;DHT22;14269;47.358;0.724;2022-09-09T10:03:29;30.0;34.0
26641;DHT22;14269;47.358;0.724;2022-09-09T10:06:10;30.0;33.0
26641;DHT22;14269;47.358;0.724;2022-09-09T10:08:45;30.0;32.0
26641;DHT22;14269;47.358;0.724;2022-09-09T10:11:33;31.0;33.0
26641;DHT22;14269;47.358;0.724;2022-09-09T10:14:20;30.0;33.0
26641;DHT22;14269;47.358;0.724;2022-09-09T10:17:06;29.0;35.0
26641;DHT22;14269;47.358;0.724;2022-09-09T10:19:41;29.0;35.0
26641;DHT22;14269;47.358;0.724;2022-09-09T10:22:26;30.0;34.0
26641;DHT22;14269;47.358;0.724;2022-09-09T10:25:19;30.0;34.0
26641;DHT22;14269;47.358;0.724;2022-09-09T10:28:10;28.0;36.0
26641;DHT22;14269;47.358;0.724;2022-09-09T10:30:51;29.0;36.0
26641;DHT22;14269;47.358;0.724;2022-09-09T10:33:33;29.0;35.0
26641;DHT22;14269;47.358;0.724;2022-09-09T10:36:13;29.0;35.0
26641;DHT22;14269;47.358;0.724;2022-09-09T10:38:55;30.0;34.0
26641;DHT22;14269;47.358;0.724;2022-09-09T10:41:43;30.0;33.0
26641;DHT22;14269;47.358;0.724;2022-09-09T10:44:38;29.0;34.0
26641;DHT22;14269;47.358;0.724;2022-09-09T10:47:27;30.0;34.0
26641;DHT22;14269;47.358;0.724;2022-09-09T10:50:23;30.0;34.0
26641;DHT22;14269;47.358;0.724;2022-09-09T10:53:05;30.0;33.0
26641;DHT22;14269;47.358;0.724;2022-09-09T10:55:43;30.0;33.0
26641;DHT22;14269;47.358;0.724;2022-09-09T10:58:28;30.0;33.0
26641;DHT22;14269;47.358;0.724;2022-09-09T11:01:11;29.0;34.0
26641;DHT22;14269;47.358;0.724;2022-09-09T11:03:53;29.0;34.0
26641;DHT22;14269;47.358;0.724;2022-09-09T11:06:32;31.0;32.0
26641;DHT22;14269;47.358;0.724;2022-09-09T11:09:16;31.0;32.0
26641;DHT22;14269;47.358;0.724;2022-09-09T11:11:55;30.0;33.0
26641;DHT22;14269;47.358;0.724;2022-09-09T11:14:38;30.0;33.0
26641;DHT22;14269;47.358;0.724;2022-09-09T11:17:19;30.0;33.0
26641;DHT22;14269;47.358;0.724;2022-09-09T11:19:58;30.0;33.0
26641;DHT22;14269;47.358;0.724;2022-09-09T11:22:32;31.0;33.0
26641;DHT22;14269;47.358;0.724;2022-09-09T11:25:16;31.0;32.0
26641;DHT22;14269;47.358;0.724;2022-09-09T11:28:05;30.0;32.0
26641;DHT22;14269;47.358;0.724;2022-09-09T11:30:54;31.0;31.0
26641;DHT22;14269;47.358;0.724;2022-09-09T11:34:19;32.0;30.0
26641;DHT22;14269;47.358;0.724;2022-09-09T11:37:08;31.0;31.0
26641;DHT22;14269;47.358;0.724;2022-09-09T11:40:07;31.0;31.0
26641;DHT22;14269;47.358;0.724;2022-09-09T11:42:43;31.0;30.0
26641;DHT22;14269;47.358;0.724;2022-09-09T11:45:22;32.0;30.0
26641;DHT22;14269;47.358;0.724;2022-09-09T11:47:57;32.0;30.0
26641;DHT22;14269;47.358;0.724;2022-09-09T11:50:40;32.0;29.0
26641;DHT22;14269;47.358;0.724;2022-09-09T11:53:22;32.0;29.0
26641;DHT22;14269;47.358;0.724;2022-09-09T11:56:05;32.0;29.0
26641;DHT22;14269;47.358;0.724;2022-09-09T11:58:53;32.0;30.0
26641;DHT22;14269;47.358;0.724;2022-09-09T12:01:37;32.0;30.0
26641;DHT22;14269;47.358;0.724;2022-09-09T12:04:28;32.0;30.0
26641;DHT22;14269;47.358;0.724;2022-09-09T12:07:27;32.0;30.0
26641;DHT22;14269;47.358;0.724;2022-09-09T12:10:05;32.0;29.0
26641;DHT22;14269;47.358;0.724;2022-09-09T12:12:42;32.0;29.0
26641;DHT22;14269;47.358;0.724;2022-09-09T12:15:23;32.0;30.0
26641;DHT22;14269;47.358;0.724;2022-09-09T12:17:57;32.0;29.0
26641;DHT22;14269;47.358;0.724;2022-09-09T12:20:38;32.0;29.0
26641;DHT22;14269;47.358;0.724;2022-09-09T12:23:27;32.0;29.0
26641;DHT22;14269;47.358;0.724;2022-09-09T12:26:23;32.0;29.0
26641;DHT22;14269;47.358;0.724;2022-09-09T12:29:13;31.0;30.0
26641;DHT22;14269;47.358;0.724;2022-09-09T12:31:59;32.0;30.0
26641;DHT22;14269;47.358;0.724;2022-09-09T12:34:39;31.0;31.0
26641;DHT22;14269;47.358;0.724;2022-09-09T12:37:27;31.0;30.0
26641;DHT22;14269;47.358;0.724;2022-09-09T12:40:03;31.0;30.0
26641;DHT22;14269;47.358;0.724;2022-09-09T12:42:42;30.0;30.0
26641;DHT22;14269;47.358;0.724;2022-09-09T12:45:17;31.0;30.0
26641;DHT22;14269;47.358;0.724;2022-09-09T12:47:57;31.0;30.0
26641;DHT22;14269;47.358;0.724;2022-09-09T12:50:42;32.0;29.0
26641;DHT22;14269;47.358;0.724;2022-09-09T12:53:22;32.0;30.0
26641;DHT22;14269;47.358;0.724;2022-09-09T12:56:03;32.0;29.0
26641;DHT22;14269;47.358;0.724;2022-09-09T12:58:47;31.0;30.0
26641;DHT22;14269;47.358;0.724;2022-09-09T13:01:26;30.0;31.0
26641;DHT22;14269;47.358;0.724;2022-09-09T13:04:19;31.0;31.0
26641;DHT22;14269;47.358;0.724;2022-09-09T13:07:07;31.0;31.0
26641;DHT22;14269;47.358;0.724;2022-09-09T13:09:49;30.0;32.0
26641;DHT22;14269;47.358;0.724;2022-09-09T13:12:22;30.0;32.0
26641;DHT22;14269;47.358;0.724;2022-09-09T13:15:03;30.0;32.0
26641;DHT22;14269;47.358;0.724;2022-09-09T13:17:35;30.0;33.0
26641;DHT22;14269;47.358;0.724;2022-09-09T13:20:17;30.0;33.0
26641;DHT22;14269;47.358;0.724;2022-09-09T13:22:58;30.0;34.0
26641;DHT22;14269;47.358;0.724;2022-09-09T13:25:30;30.0;34.0
26641;DHT22;14269;47.358;0.724;2022-09-09T13:28:04;31.0;34.0
26641;DHT22;14269;47.358;0.724;2022-09-09T13:30:44;31.0;34.0
26641;DHT22;14269;47.358;0.724;2022-09-09T13:33:30;31.0;34.0
26641;DHT22;14269;47.358;0.724;2022-09-09T13:36:08;31.0;33.0
26641;DHT22;14269;47.358;0.724;2022-09-09T13:38:55;32.0;32.0
26641;DHT22;14269;47.358;0.724;2022-09-09T13:41:32;32.0;32.0
26641;DHT22;14269;47.358;0.724;2022-09-09T13:44:19;32.0;33.0
26641;DHT22;14269;47.358;0.724;2022-09-09T13:47:03;32.0;32.0
26641;DHT22;14269;47.358;0.724;2022-09-09T13:49:35;32.0;31.0
26641;DHT22;14269;47.358;0.724;2022-09-09T13:52:11;32.0;30.0
26641;DHT22;14269;47.358;0.724;2022-09-09T13:54:49;33.0;30.0
26641;DHT22;14269;47.358;0.724;2022-09-09T13:57:31;32.0;29.0
26641;DHT22;14269;47.358;0.724;2022-09-09T14:00:03;32.0;29.0
26641;DHT22;14269;47.358;0.724;2022-09-09T14:02:34;32.0;29.0
26641;DHT22;14269;47.358;0.724;2022-09-09T14:05:06;31.0;30.0
26641;DHT22;14269;47.358;0.724;2022-09-09T14:07:38;33.0;28.0
26641;DHT22;14269;47.358;0.724;2022-09-09T14:10:19;32.0;28.0
26641;DHT22;14269;47.358;0.724;2022-09-09T14:12:51;31.0;28.0
26641;DHT22;14269;47.358;0.724;2022-09-09T14:15:22;32.0;28.0
26641;DHT22;14269;47.358;0.724;2022-09-09T14:17:54;31.0;29.0
26641;DHT22;14269;47.358;0.724;2022-09-09T14:20:26;32.0;29.0
26641;DHT22;14269;47.358;0.724;2022-09-09T14:22:58;32.0;29.0
26641;DHT22;14269;47.358;0.724;2022-09-09T14:25:41;32.0;29.0
26641;DHT22;14269;47.358;0.724;2022-09-09T14:28:20;32.0;28.0
26641;DHT22;14269;47.358;0.724;2022-09-09T14:30:52;32.0;28.0
26641;DHT22;14269;47.358;0.724;2022-09-09T14:33:24;32.0;28.0
26641;DHT22;14269;47.358;0.724;2022-09-09T14:35:56;32.0;28.0
26641;DHT22;14269;47.358;0.724;2022-09-09T14:38:29;32.0;29.0
26641;DHT22;14269;47.358;0.724;2022-09-09T14:41:10;32.0;29.0
26641;DHT22;14269;47.358;0.724;2022-09-09T14:43:52;31.0;30.0
26641;DHT22;14269;47.358;0.724;2022-09-09T14:46:33;31.0;30.0
26641;DHT22;14269;47.358;0.724;2022-09-09T14:49:04;31.0;30.0
26641;DHT22;14269;47.358;0.724;2022-09-09T14:51:36;31.0;31.0
26641;DHT22;14269;47.358;0.724;2022-09-09T14:54:07;31.0;31.0
26641;DHT22;14269;47.358;0.724;2022-09-09T14:56:39;31.0;30.0
26641;DHT22;14269;47.358;0.724;2022-09-09T14:59:11;31.0;30.0
26641;DHT22;14269;47.358;0.724;2022-09-09T15:01:42;31.0;30.0
26641;DHT22;14269;47.358;0.724;2022-09-09T15:04:15;31.0;30.0
26641;DHT22;14269;47.358;0.724;2022-09-09T15:06:56;31.0;31.0
26641;DHT22;14269;47.358;0.724;2022-09-09T15:09:27;30.0;31.0
26641;DHT22;14269;47.358;0.724;2022-09-09T15:11:59;30.0;31.0
26641;DHT22;14269;47.358;0.724;2022-09-09T15:14:41;30.0;31.0
26641;DHT22;14269;47.358;0.724;2022-09-09T15:17:12;30.0;31.0
26641;DHT22;14269;47.358;0.724;2022-09-09T15:19:44;30.0;31.0
26641;DHT22;14269;47.358;0.724;2022-09-09T15:22:15;31.0;30.0
26641;DHT22;14269;47.358;0.724;2022-09-09T15:24:47;31.0;29.0
26641;DHT22;14269;47.358;0.724;2022-09-09T15:27:19;31.0;28.0
26641;DHT22;14269;47.358;0.724;2022-09-09T15:29:51;31.0;29.0
26641;DHT22;14269;47.358;0.724;2022-09-09T15:32:22;31.0;29.0
26641;DHT22;14269;47.358;0.724;2022-09-09T15:34:54;31.0;29.0
26641;DHT22;14269;47.358;0.724;2022-09-09T15:37:25;30.0;30.0
26641;DHT22;14269;47.358;0.724;2022-09-09T15:39:58;31.0;30.0
26641;DHT22;14269;47.358;0.724;2022-09-09T15:42:39;30.0;30.0
26641;DHT22;14269;47.358;0.724;2022-09-09T15:45:10;30.0;30.0
26641;DHT22;14269;47.358;0.724;2022-09-09T15:47:43;30.0;30.0
26641;DHT22;14269;47.358;0.724;2022-09-09T15:50:24;30.0;30.0
26641;DHT22;14269;47.358;0.724;2022-09-09T15:52:55;30.0;31.0
26641;DHT22;14269;47.358;0.724;2022-09-09T15:55:28;30.0;30.0
26641;DHT22;14269;47.358;0.724;2022-09-09T15:57:59;30.0;30.0
26641;DHT22;14269;47.358;0.724;2022-09-09T16:00:31;30.0;30.0
26641;DHT22;14269;47.358;0.724;2022-09-09T16:03:02;30.0;30.0
26641;DHT22;14269;47.358;0.724;2022-09-09T16:05:34;30.0;30.0
26641;DHT22;14269;47.358;0.724;2022-09-09T16:08:06;29.0;31.0
26641;DHT22;14269;47.358;0.724;2022-09-09T16:10:37;29.0;31.0
26641;DHT22;14269;47.358;0.724;2022-09-09T16:13:09;29.0;31.0
26641;DHT22;14269;47.358;0.724;2022-09-09T16:15:40;29.0;32.0
26641;DHT22;14269;47.358;0.724;2022-09-09T16:18:12;29.0;31.0
26641;DHT22;14269;47.358;0.724;2022-09-09T16:20:53;29.0;32.0
26641;DHT22;14269;47.358;0.724;2022-09-09T16:23:25;29.0;32.0
26641;DHT22;14269;47.358;0.724;2022-09-09T16:25:57;29.0;32.0
26641;DHT22;14269;47.358;0.724;2022-09-09T16:28:29;29.0;32.0
26641;DHT22;14269;47.358;0.724;2022-09-09T16:31:04;29.0;32.0
26641;DHT22;14269;47.358;0.724;2022-09-09T16:33:42;29.0;32.0
26641;DHT22;14269;47.358;0.724;2022-09-09T16:36:15;29.0;32.0
26641;DHT22;14269;47.358;0.724;2022-09-09T16:38:57;29.0;32.0
26641;DHT22;14269;47.358;0.724;2022-09-09T16:41:39;29.0;32.0
26641;DHT22;14269;47.358;0.724;2022-09-09T16:44:19;29.0;33.0
26641;DHT22;14269;47.358;0.724;2022-09-09T16:46:52;29.0;33.0
26641;DHT22;14269;47.358;0.724;2022-09-09T16:49:32;29.0;33.0
26641;DHT22;14269;47.358;0.724;2022-09-09T16:52:04;28.0;33.0
26641;DHT22;14269;47.358;0.724;2022-09-09T16:54:36;28.0;33.0
26641;DHT22;14269;47.358;0.724;2022-09-09T16:57:07;28.0;33.0
26641;DHT22;14269;47.358;0.724;2022-09-09T16:59:39;29.0;33.0
26641;DHT22;14269;47.358;0.724;2022-09-09T17:02:11;28.0;33.0
26641;DHT22;14269;47.358;0.724;2022-09-09T17:04:42;28.0;33.0
26641;DHT22;14269;47.358;0.724;2022-09-09T17:07:14;28.0;33.0
26641;DHT22;14269;47.358;0.724;2022-09-09T17:09:45;29.0;33.0
26641;DHT22;14269;47.358;0.724;2022-09-09T17:12:17;29.0;32.0